createdAt,value
2022-08-04T00:02:05.284Z,81.65
2022-08-04T00:04:31.684Z,81.71
2022-08-04T00:06:58.051Z,81.75
2022-08-04T00:09:24.519Z,81.37
2022-08-04T00:11:50.921Z,80.41
2022-08-04T00:14:17.387Z,79.92
2022-08-04T00:16:43.745Z,79.87
2022-08-04T00:19:10.129Z,79.81
2022-08-04T00:21:36.491Z,79.84
2022-08-04T00:24:11.330Z,79.85
2022-08-04T00:26:29.243Z,79.71
2022-08-04T00:28:55.647Z,80.20
2022-08-04T00:31:33.217Z,80.94
2022-08-04T00:33:48.479Z,82.29
2022-08-04T00:36:14.862Z,83.93
2022-08-04T00:38:41.238Z,84.97
2022-08-04T00:41:07.599Z,84.88
2022-08-04T00:43:34.071Z,84.42
2022-08-04T00:46:00.514Z,84.23
2022-08-04T00:48:26.937Z,84.86
2022-08-04T00:50:53.321Z,85.13
2022-08-04T00:53:19.686Z,84.85
2022-08-04T00:55:46.053Z,84.91
2022-08-04T00:58:12.446Z,85.24
2022-08-04T01:00:38.898Z,85.18
2022-08-04T01:03:05.332Z,84.67
2022-08-04T01:05:37.595Z,84.07
2022-08-04T01:07:58.089Z,83.04
2022-08-04T01:10:24.476Z,81.95
2022-08-04T01:12:50.877Z,80.95
2022-08-04T01:15:17.253Z,79.93
2022-08-04T01:17:43.720Z,79.46
2022-08-04T01:20:10.079Z,79.16
2022-08-04T01:22:36.465Z,78.71
2022-08-04T01:25:04.829Z,78.71
2022-08-04T01:27:29.301Z,79.26
2022-08-04T01:29:55.797Z,80.04
2022-08-04T01:32:26.062Z,81.19
2022-08-04T01:34:48.442Z,81.74
2022-08-04T01:37:14.883Z,81.88
2022-08-04T01:39:41.313Z,82.17
2022-08-04T01:42:09.525Z,81.79
2022-08-04T01:44:34.091Z,80.96
2022-08-04T01:47:00.463Z,80.16
2022-08-04T01:49:26.850Z,81.06
2022-08-04T01:51:53.271Z,82.63
2022-08-04T01:54:19.635Z,82.09
2022-08-04T01:56:46.031Z,82.40
2022-08-04T01:59:12.468Z,82.10
2022-08-04T02:01:39.001Z,81.82
2022-08-04T02:04:20.378Z,82.48
2022-08-04T02:06:31.764Z,83.14
2022-08-04T02:08:58.131Z,83.22
2022-08-04T02:11:24.533Z,82.34
2022-08-04T02:13:50.969Z,80.32
2022-08-04T02:16:17.335Z,78.85
2022-08-04T02:18:43.714Z,78.89
2022-08-04T02:21:10.092Z,78.79
2022-08-04T02:23:36.587Z,78.34
2022-08-04T02:26:02.959Z,78.09
2022-08-04T02:28:29.322Z,77.68
2022-08-04T02:30:55.694Z,77.64
2022-08-04T02:33:22.101Z,77.86
2022-08-04T02:35:48.559Z,78.14
2022-08-04T02:38:14.927Z,78.76
2022-08-04T02:40:41.298Z,79.35
2022-08-04T02:43:07.660Z,79.67
2022-08-04T02:45:34.025Z,79.98
2022-08-04T02:48:08.194Z,79.85
2022-08-04T02:50:28.945Z,79.19
2022-08-04T02:52:53.165Z,78.96
2022-08-04T02:55:19.611Z,78.95
2022-08-04T02:57:46.044Z,79.11
2022-08-04T03:00:12.510Z,79.38
2022-08-04T03:02:38.831Z,79.66
2022-08-04T03:05:05.341Z,78.94
2022-08-04T03:07:31.705Z,77.97
2022-08-04T03:09:58.208Z,77.82
2022-08-04T03:12:24.645Z,78.17
2022-08-04T03:14:51.029Z,78.66
2022-08-04T03:17:17.434Z,79.13
2022-08-04T03:19:43.838Z,79.32
2022-08-04T03:22:10.274Z,79.43
2022-08-04T03:24:36.704Z,79.98
2022-08-04T03:27:03.105Z,81.52
2022-08-04T03:29:36.030Z,82.94
2022-08-04T03:31:55.897Z,83.78
2022-08-04T03:34:22.313Z,84.66
2022-08-04T03:36:48.689Z,84.67
2022-08-04T03:39:15.128Z,84.01
2022-08-04T03:41:55.246Z,84.05
2022-08-04T03:44:08.006Z,84.10
2022-08-04T03:46:34.369Z,84.42
2022-08-04T03:49:00.757Z,84.38
2022-08-04T03:51:32.493Z,83.67
2022-08-04T03:53:53.545Z,84.15
2022-08-04T03:56:19.947Z,84.36
2022-08-04T03:58:46.336Z,84.38
2022-08-04T04:01:12.789Z,83.62
2022-08-04T04:03:39.185Z,82.39
2022-08-04T04:06:05.568Z,81.62
2022-08-04T04:08:31.963Z,81.27
2022-08-04T04:10:58.418Z,81.39
2022-08-04T04:13:24.856Z,82.14
2022-08-04T04:15:51.256Z,82.12
2022-08-04T04:18:17.625Z,81.52
2022-08-04T04:20:43.988Z,81.58
2022-08-04T04:23:11.072Z,81.44
2022-08-04T04:25:36.844Z,80.58
2022-08-04T04:28:46.123Z,79.40
2022-08-04T04:30:29.594Z,78.38
2022-08-04T04:32:55.965Z,78.56
2022-08-04T04:35:22.446Z,78.95
2022-08-04T04:37:49.277Z,79.13
2022-08-04T04:40:15.170Z,81.94
2022-08-04T04:42:41.565Z,81.74
2022-08-04T04:45:07.968Z,81.50
2022-08-04T04:48:09.200Z,80.76
2022-08-04T04:50:00.735Z,80.12
2022-08-04T04:52:27.106Z,78.53
2022-08-04T04:54:53.476Z,78.69
2022-08-04T04:57:20.141Z,81.03
2022-08-04T04:59:46.254Z,81.84
2022-08-04T05:02:12.641Z,80.82
2022-08-04T05:04:39.024Z,81.82
2022-08-04T05:07:05.403Z,80.68
2022-08-04T05:09:31.798Z,80.73
2022-08-04T05:11:58.207Z,81.72
2022-08-04T05:14:38.678Z,82.75
2022-08-04T05:16:50.950Z,82.98
2022-08-04T05:19:17.338Z,83.21
2022-08-04T05:21:43.856Z,83.68
2022-08-04T05:24:10.283Z,83.48
2022-08-04T05:26:36.661Z,83.20
2022-08-04T05:29:03.053Z,82.51
2022-08-04T05:31:29.442Z,81.33
2022-08-04T05:33:55.835Z,80.38
2022-08-04T05:36:39.996Z,80.52
2022-08-04T05:38:48.592Z,79.87
2022-08-04T05:41:14.965Z,78.48
2022-08-04T05:43:41.346Z,78.52
2022-08-04T05:46:07.776Z,78.59
2022-08-04T05:48:34.174Z,77.68
2022-08-04T05:51:01.287Z,76.94
2022-08-04T05:53:27.004Z,76.35
2022-08-04T05:55:58.523Z,76.34
2022-08-04T05:58:19.774Z,76.33
2022-08-04T06:00:51.707Z,75.63
2022-08-04T06:03:12.526Z,73.33
2022-08-04T06:05:38.953Z,72.40
2022-08-04T06:08:13.926Z,72.78
2022-08-04T06:10:31.694Z,71.56
2022-08-04T06:12:58.056Z,72.34
2022-08-04T06:15:25.320Z,72.77
2022-08-04T06:19:57.815Z,72.64
2022-08-04T06:20:17.854Z,72.31
2022-08-04T06:22:43.668Z,73.42
2022-08-04T06:25:10.042Z,74.10
2022-08-04T06:27:36.406Z,75.33
2022-08-04T06:30:02.767Z,74.15
2022-08-04T06:32:34.583Z,75.35
2022-08-04T06:34:55.500Z,74.64
2022-08-04T06:37:41.526Z,75.23
2022-08-04T06:39:48.337Z,76.14
2022-08-04T06:42:22.219Z,75.86
2022-08-04T06:44:41.141Z,75.60
2022-08-04T06:47:07.524Z,72.94
2022-08-04T06:49:44.157Z,73.48
2022-08-04T06:52:00.345Z,74.95
2022-08-04T06:54:26.720Z,74.69
2022-08-04T06:56:53.131Z,73.99
2022-08-04T06:59:19.499Z,74.15
2022-08-04T07:01:46.011Z,73.43
2022-08-04T07:04:12.332Z,73.15
2022-08-04T07:06:38.730Z,72.71
2022-08-04T07:09:05.097Z,71.54
2022-08-04T07:11:44.422Z,70.96
2022-08-04T07:13:57.927Z,70.50
2022-08-04T07:16:30.626Z,70.16
2022-08-04T07:18:50.741Z,68.01
2022-08-04T07:21:17.143Z,66.09
2022-08-04T07:23:43.506Z,63.59
2022-08-04T07:26:12.928Z,62.03
2022-08-04T07:28:36.429Z,60.78
2022-08-04T07:31:02.797Z,60.92
2022-08-04T07:33:29.186Z,61.04
2022-08-04T07:36:04.885Z,62.66
2022-08-04T07:38:27.462Z,63.83
2022-08-04T07:40:48.384Z,64.51
2022-08-04T07:43:14.818Z,63.73
2022-08-04T07:45:41.187Z,60.63
2022-08-04T07:48:07.547Z,59.10
2022-08-04T07:50:33.918Z,58.52
2022-08-04T07:53:53.486Z,59.40
2022-08-04T07:55:26.700Z,59.62
2022-08-04T07:57:53.083Z,59.14
2022-08-04T08:00:19.463Z,59.61
2022-08-04T08:02:45.844Z,59.02
2022-08-04T08:05:12.235Z,57.65
2022-08-04T08:07:38.605Z,56.80
2022-08-04T08:10:04.995Z,57.49
2022-08-04T08:12:38.549Z,57.46
2022-08-04T08:14:57.746Z,56.25
2022-08-04T08:17:24.209Z,55.35
2022-08-04T08:19:50.510Z,54.17
2022-08-04T08:22:16.898Z,54.86
2022-08-04T08:24:43.271Z,52.02
2022-08-04T08:27:09.635Z,53.15
2022-08-04T08:29:36.066Z,54.54
2022-08-04T08:32:07.693Z,52.77
2022-08-04T08:34:29.109Z,51.74
2022-08-04T08:36:55.230Z,51.02
2022-08-04T08:39:24.622Z,51.00
2022-08-04T08:41:51.737Z,51.81
2022-08-04T08:44:18.961Z,51.44
2022-08-04T08:46:49.366Z,50.95
2022-08-04T08:49:07.281Z,52.24
2022-08-04T08:51:33.715Z,51.19
2022-08-04T08:54:00.110Z,49.84
2022-08-04T08:56:31.364Z,50.94
2022-08-04T08:58:52.892Z,49.39
2022-08-04T09:01:19.437Z,50.04
2022-08-04T09:03:45.777Z,47.78
2022-08-04T09:06:12.193Z,47.73
2022-08-04T09:08:38.563Z,47.01
2022-08-04T09:11:04.939Z,47.80
2022-08-04T09:13:31.407Z,45.61
2022-08-04T09:15:57.834Z,45.78
2022-08-04T09:18:24.271Z,46.49
2022-08-04T09:20:50.634Z,45.96
2022-08-04T09:23:17.027Z,44.51
2022-08-04T09:25:43.472Z,45.12
2022-08-04T09:28:09.923Z,45.07
2022-08-04T09:30:36.260Z,45.28
2022-08-04T09:33:02.632Z,45.07
2022-08-04T09:35:29.005Z,44.39
2022-08-04T09:37:55.422Z,44.59
2022-08-04T09:40:31.256Z,43.67
2022-08-04T09:42:48.194Z,43.63
2022-08-04T09:45:17.865Z,43.44
2022-08-04T09:47:41.078Z,43.43
2022-08-04T09:50:07.328Z,43.14
2022-08-04T09:52:33.725Z,43.91
2022-08-04T09:55:00.155Z,43.32
2022-08-04T09:57:26.591Z,43.38
2022-08-04T09:59:52.969Z,42.66
2022-08-04T10:02:19.681Z,42.32
2022-08-04T10:04:45.811Z,42.54
2022-08-04T10:07:12.219Z,42.38
2022-08-04T10:09:38.575Z,42.26
2022-08-04T10:12:04.985Z,41.66
2022-08-04T10:14:31.412Z,42.13
2022-08-04T10:16:57.894Z,42.29
2022-08-04T10:19:24.258Z,42.51
2022-08-04T10:21:59.704Z,41.92
2022-08-04T10:24:17.009Z,42.15
2022-08-04T10:26:43.476Z,42.18
2022-08-04T10:29:09.861Z,42.53
2022-08-04T10:31:36.297Z,42.54
2022-08-04T10:34:02.678Z,41.93
2022-08-04T10:36:29.044Z,40.40
2022-08-04T10:38:55.474Z,39.74
2022-08-04T10:41:21.812Z,39.07
2022-08-04T10:43:48.202Z,38.58
2022-08-04T10:46:14.639Z,37.01
2022-08-04T10:48:41.078Z,36.97
2022-08-04T10:51:07.454Z,36.70
2022-08-04T10:53:33.826Z,37.13
2022-08-04T10:56:07.579Z,36.39
2022-08-04T10:58:46.937Z,36.13
2022-08-04T11:00:53.029Z,35.33
2022-08-04T11:03:19.438Z,35.67
2022-08-04T11:05:45.764Z,36.44
2022-08-04T11:08:15.333Z,36.00
2022-08-04T11:10:38.519Z,35.06
2022-08-04T11:13:04.891Z,35.82
2022-08-04T11:15:31.320Z,36.33
2022-08-04T11:17:57.683Z,36.26
2022-08-04T11:20:39.379Z,37.11
2022-08-04T11:22:50.522Z,36.78
2022-08-04T11:25:16.895Z,36.54
2022-08-04T11:27:43.258Z,37.05
2022-08-04T11:30:09.670Z,37.39
2022-08-04T11:32:36.147Z,37.62
2022-08-04T11:35:02.596Z,37.67
2022-08-04T11:37:29.016Z,37.70
2022-08-04T11:39:55.417Z,37.06
2022-08-04T11:42:21.815Z,37.23
2022-08-04T11:44:48.209Z,37.36
2022-08-04T11:47:14.577Z,37.07
2022-08-04T11:49:56.647Z,37.19
2022-08-04T11:52:07.405Z,36.84
2022-08-04T11:54:33.771Z,36.26
2022-08-04T11:57:00.180Z,36.13
2022-08-04T11:59:26.571Z,35.82
2022-08-04T12:01:53.117Z,35.98
2022-08-04T12:04:19.467Z,36.47
2022-08-04T12:06:57.021Z,36.36
2022-08-04T12:09:12.327Z,35.76
2022-08-04T12:11:38.766Z,36.23
2022-08-04T12:14:05.207Z,36.34
2022-08-04T12:16:31.564Z,35.84
2022-08-04T12:18:58.068Z,35.23
2022-08-04T12:21:24.435Z,35.91
2022-08-04T12:23:56.618Z,35.63
2022-08-04T12:26:17.174Z,35.56
2022-08-04T12:31:11.799Z,36.29
2022-08-04T12:33:41.392Z,35.80
2022-08-04T12:36:11.033Z,36.27
2022-08-04T12:38:29.233Z,36.17
2022-08-04T12:40:55.616Z,36.69
2022-08-04T12:43:22.015Z,36.84
2022-08-04T12:45:48.595Z,36.22
2022-08-04T12:48:17.914Z,36.46
2022-08-04T12:50:41.107Z,36.75
2022-08-04T12:53:07.536Z,36.25
2022-08-04T12:55:34.252Z,35.87
2022-08-04T12:58:00.384Z,36.55
2022-08-04T13:00:30.521Z,36.29
2022-08-04T13:02:53.145Z,36.47
2022-08-04T13:05:19.538Z,36.20
2022-08-04T13:07:45.940Z,36.49
2022-08-04T13:10:12.329Z,36.11
2022-08-04T13:12:38.693Z,37.09
2022-08-04T13:15:09.743Z,36.98
2022-08-04T13:17:31.501Z,36.70
2022-08-04T13:19:57.898Z,37.68
2022-08-04T13:22:26.589Z,37.36
2022-08-04T13:24:56.520Z,37.06
2022-08-04T13:27:17.164Z,36.79
2022-08-04T13:29:59.805Z,36.81
2022-08-04T13:32:10.036Z,36.86
2022-08-04T13:34:36.398Z,37.15
2022-08-04T13:37:02.767Z,37.11
2022-08-04T13:39:29.224Z,37.09
2022-08-04T13:41:59.183Z,37.61
2022-08-04T13:44:21.953Z,36.42
2022-08-04T13:46:50.752Z,37.40
2022-08-04T13:49:38.067Z,36.10
2022-08-04T13:51:58.381Z,36.93
2022-08-04T13:54:07.430Z,37.21
2022-08-04T13:56:33.803Z,36.31
2022-08-04T13:59:01.412Z,39.36
2022-08-04T14:01:35.587Z,38.11
2022-08-04T14:03:53.987Z,38.88
2022-08-04T14:06:19.337Z,40.57
2022-08-04T14:08:45.704Z,40.28
2022-08-04T14:12:10.799Z,39.79
2022-08-04T14:13:42.008Z,38.94
2022-08-04T14:16:04.983Z,39.18
2022-08-04T14:18:31.259Z,37.70
2022-08-04T14:20:57.649Z,38.02
2022-08-04T14:23:24.007Z,37.96
2022-08-04T14:25:50.392Z,37.91
2022-08-04T14:28:16.794Z,38.48
2022-08-04T14:30:43.157Z,38.31
2022-08-04T14:34:00.712Z,38.24
2022-08-04T14:35:38.380Z,38.65
2022-08-04T14:38:03.456Z,37.88
2022-08-04T14:40:30.341Z,38.90
2022-08-04T14:42:56.510Z,38.28
2022-08-04T14:45:21.449Z,38.04
2022-08-04T14:47:51.897Z,38.51
2022-08-04T14:50:14.193Z,38.46
2022-08-04T14:52:40.576Z,38.66
2022-08-04T14:55:06.941Z,39.20
2022-08-04T14:57:33.342Z,37.68
2022-08-04T15:00:02.397Z,37.38
2022-08-04T15:02:29.488Z,38.25
2022-08-04T15:04:52.465Z,38.21
2022-08-04T15:07:18.892Z,39.25
2022-08-04T15:09:45.280Z,39.22
2022-08-04T15:12:11.660Z,39.88
2022-08-04T15:14:38.493Z,39.67
2022-08-04T15:17:08.466Z,40.19
2022-08-04T15:19:30.835Z,39.63
2022-08-04T15:21:57.267Z,39.67
2022-08-04T15:24:23.997Z,40.13
2022-08-04T15:26:50.407Z,44.79
2022-08-04T15:29:17.111Z,43.47
2022-08-04T15:32:05.554Z,42.28
2022-08-04T15:34:09.727Z,43.59
2022-08-04T15:36:36.089Z,44.29
2022-08-04T15:39:02.569Z,46.38
2022-08-04T15:41:28.871Z,48.54
2022-08-04T15:43:55.773Z,48.82
2022-08-04T15:46:43.534Z,49.23
2022-08-04T15:48:48.070Z,49.10
2022-08-04T15:51:15.335Z,49.29
2022-08-04T15:54:02.528Z,48.38
2022-08-04T15:56:07.229Z,47.41
2022-08-04T15:58:33.607Z,47.75
2022-08-04T16:01:00.096Z,46.77
2022-08-04T16:03:58.448Z,47.35
2022-08-04T16:05:52.960Z,46.84
2022-08-04T16:08:19.338Z,47.98
2022-08-04T16:10:45.697Z,47.21
2022-08-04T16:13:12.091Z,46.70
2022-08-04T16:15:38.469Z,47.05
2022-08-04T16:18:04.840Z,47.33
2022-08-04T16:20:31.228Z,47.58
2022-08-04T16:22:57.626Z,47.32
2022-08-04T16:25:23.980Z,46.06
2022-08-04T16:27:50.354Z,46.94
2022-08-04T16:30:16.807Z,47.57
2022-08-04T16:32:43.189Z,48.37
2022-08-04T16:35:09.550Z,47.14
2022-08-04T16:37:35.940Z,47.67
2022-08-04T16:40:02.310Z,46.61
2022-08-04T16:42:28.743Z,44.18
2022-08-04T16:44:55.176Z,43.98
2022-08-04T16:47:22.959Z,45.10
2022-08-04T16:49:51.815Z,44.97
2022-08-04T16:52:14.503Z,43.75
2022-08-04T16:54:40.904Z,43.68
2022-08-04T16:57:07.332Z,43.78
2022-08-04T16:59:33.701Z,44.03
2022-08-04T17:02:00.134Z,42.83
2022-08-04T17:04:26.468Z,43.09
2022-08-04T17:06:52.864Z,43.33
2022-08-04T17:09:19.273Z,43.56
2022-08-04T17:11:45.639Z,43.68
2022-08-04T17:14:12.004Z,45.32
2022-08-04T17:16:38.367Z,45.42
2022-08-04T17:19:04.822Z,45.83
2022-08-04T17:21:31.450Z,45.66
2022-08-04T17:24:14.479Z,45.39
2022-08-04T17:26:23.938Z,44.51
2022-08-04T17:28:50.310Z,44.62
2022-08-04T17:31:16.701Z,44.19
2022-08-04T17:33:54.797Z,44.33
2022-08-04T17:36:09.487Z,43.89
2022-08-04T17:38:35.876Z,44.78
2022-08-04T17:41:11.656Z,44.95
2022-08-04T17:44:04.634Z,44.35
2022-08-04T17:45:56.956Z,44.04
2022-08-04T17:50:47.808Z,43.75
2022-08-04T17:53:14.273Z,44.35
2022-08-04T17:55:40.742Z,44.96
2022-08-04T17:58:11.769Z,45.24
2022-08-04T18:00:33.600Z,45.10
2022-08-04T18:03:00.054Z,44.75
2022-08-04T18:05:26.393Z,45.17
2022-08-04T18:08:46.070Z,44.69
2022-08-04T18:10:33.006Z,45.27
2022-08-04T18:12:45.556Z,44.93
2022-08-04T18:15:11.978Z,44.84
2022-08-04T18:18:19.744Z,45.02
2022-08-04T18:20:04.743Z,45.15
2022-08-04T18:22:31.133Z,45.15
2022-08-04T18:24:57.512Z,44.94
2022-08-04T18:27:24.326Z,44.89
2022-08-04T18:30:34.014Z,44.68
2022-08-04T18:32:16.726Z,44.74
2022-08-04T18:34:54.925Z,44.80
2022-08-04T18:38:06.492Z,45.51
2022-08-04T18:42:04.154Z,45.74
2022-08-04T18:44:28.649Z,45.83
2022-08-04T18:46:55.793Z,45.99
2022-08-04T18:50:59.272Z,46.09
2022-08-04T18:51:49.011Z,46.34
2022-08-04T18:54:14.318Z,46.30
2022-08-04T18:56:40.701Z,46.60
2022-08-04T18:59:10.148Z,46.94
2022-08-04T19:02:09.090Z,47.05
2022-08-04T19:04:00.142Z,47.18
2022-08-04T19:06:27.564Z,47.10
2022-08-04T19:08:52.815Z,46.74
2022-08-04T19:11:37.836Z,46.56
2022-08-04T19:13:45.544Z,46.40
2022-08-04T19:16:16.945Z,46.34
2022-08-04T19:18:38.327Z,45.82
2022-08-04T19:21:05.209Z,46.00
2022-08-04T19:24:10.955Z,46.19
2022-08-04T19:26:02.582Z,46.51
2022-08-04T19:28:23.853Z,46.45
2022-08-04T19:30:50.265Z,46.95
2022-08-04T19:33:16.634Z,48.86
2022-08-04T19:35:46.321Z,49.80
2022-08-04T19:38:09.387Z,49.73
2022-08-04T19:40:35.791Z,49.61
2022-08-04T19:43:14.250Z,50.03
2022-08-04T19:45:41.693Z,49.96
2022-08-04T19:48:17.031Z,49.75
2022-08-04T19:50:23.665Z,49.93
2022-08-04T19:52:52.218Z,49.66
2022-08-04T19:55:14.042Z,49.61
2022-08-04T19:57:41.356Z,49.63
2022-08-04T20:00:06.844Z,49.32
2022-08-04T20:02:33.208Z,49.11
2022-08-04T20:04:59.597Z,49.00
2022-08-04T20:07:26.189Z,49.23
2022-08-04T20:09:53.632Z,49.34
2022-08-04T20:12:18.804Z,49.51
2022-08-04T20:14:45.258Z,49.57
2022-08-04T20:17:11.671Z,49.56
2022-08-04T20:19:38.051Z,49.62
2022-08-04T20:22:04.407Z,49.55
2022-08-04T20:24:37.649Z,49.40
2022-08-04T20:26:57.152Z,50.35
2022-08-04T20:29:37.032Z,50.47
2022-08-04T20:31:49.905Z,50.41
2022-08-04T20:34:16.273Z,50.78
2022-08-04T20:36:50.045Z,51.00
2022-08-04T20:39:09.784Z,51.62
2022-08-04T20:41:36.694Z,51.51
2022-08-04T20:44:01.869Z,51.52
2022-08-04T20:46:29.210Z,51.99
2022-08-04T20:48:54.621Z,51.78
2022-08-04T20:51:32.145Z,51.93
2022-08-04T20:53:53.469Z,52.18
2022-08-04T20:56:19.383Z,52.68
2022-08-04T20:58:40.189Z,53.03
2022-08-04T21:01:06.587Z,53.37
2022-08-04T21:03:49.840Z,53.68
2022-08-04T21:05:59.301Z,53.85
2022-08-04T21:08:27.111Z,54.61
2022-08-04T21:10:52.067Z,55.17
2022-08-04T21:13:18.441Z,55.52
2022-08-04T21:15:58.888Z,55.37
2022-08-04T21:18:11.286Z,55.20
2022-08-04T21:20:42.715Z,54.87
2022-08-04T21:23:05.024Z,55.27
2022-08-04T21:25:30.475Z,55.67
2022-08-04T21:27:58.768Z,55.83
2022-08-04T21:30:25.368Z,55.13
2022-08-04T21:32:49.586Z,55.09
2022-08-04T21:35:16.298Z,54.97
2022-08-04T21:37:58.165Z,54.71
2022-08-04T21:40:14.504Z,54.97
2022-08-04T21:42:35.191Z,55.55
2022-08-04T21:45:03.445Z,55.79
2022-08-04T21:47:45.802Z,55.51
2022-08-04T21:52:20.822Z,54.39
2022-08-04T21:54:47.196Z,54.58
2022-08-04T21:57:13.691Z,54.29
2022-08-04T21:59:45.310Z,53.86
2022-08-04T22:02:06.549Z,53.81
2022-08-04T22:04:32.823Z,53.95
2022-08-04T22:07:02.766Z,54.01
2022-08-04T22:09:25.613Z,54.17
2022-08-04T22:11:52.268Z,54.38
2022-08-04T22:14:27.360Z,54.28
2022-08-04T22:16:44.736Z,54.52
2022-08-04T22:19:11.110Z,54.77
2022-08-04T22:21:39.256Z,55.39
2022-08-04T22:24:03.866Z,56.10
2022-08-04T22:26:30.271Z,56.12
2022-08-04T22:28:56.630Z,56.03
2022-08-04T22:31:24.758Z,56.04
2022-08-04T22:33:54.763Z,56.28
2022-08-04T22:36:15.777Z,56.54
2022-08-04T22:38:48.605Z,56.78
2022-08-04T22:41:08.519Z,56.92
2022-08-04T22:43:35.010Z,57.30
2022-08-04T22:46:01.811Z,57.23
2022-08-04T22:48:27.755Z,57.41
2022-08-04T22:50:54.175Z,57.79
2022-08-04T22:53:20.530Z,57.96
2022-08-04T22:56:06.880Z,58.11
2022-08-04T22:58:13.384Z,58.15
2022-08-04T23:00:40.137Z,58.01
2022-08-04T23:03:06.121Z,58.25
2022-08-04T23:05:35.723Z,58.52
2022-08-04T23:07:58.844Z,58.82
2022-08-04T23:10:25.226Z,58.94
2022-08-04T23:12:51.581Z,59.18
2022-08-04T23:15:18.174Z,59.45
2022-08-04T23:17:47.979Z,59.32
2022-08-04T23:20:22.899Z,59.21
2022-08-04T23:22:41.836Z,59.08
2022-08-04T23:25:03.970Z,59.27
2022-08-04T23:27:33.859Z,59.60
2022-08-04T23:29:56.271Z,59.76
2022-08-04T23:32:22.699Z,59.59
2022-08-04T23:34:49.061Z,59.31
2022-08-04T23:37:15.809Z,59.29
2022-08-04T23:39:42.302Z,59.50
2022-08-04T23:42:08.168Z,59.87
2022-08-04T23:44:34.532Z,60.02
2022-08-04T23:47:00.988Z,60.61
2022-08-04T23:49:43.888Z,60.99
2022-08-04T23:51:54.299Z,60.94
2022-08-04T23:54:25.854Z,60.83
2022-08-04T23:56:46.393Z,60.66
2022-08-04T23:59:18.015Z,61.03
